sensor_id;sensor_type;location;lat;lon;timestamp;P1;durP1;ratioP1;P2;durP2;ratioP2
16478;SDS011;8350;52.316;10.530;2024-01-30T00:00:30;1.92;;;1.73;;
16478;SDS011;8350;52.316;10.530;2024-01-30T00:02:57;2.25;;;1.90;;
16478;SDS011;8350;52.316;10.530;2024-01-30T00:05:24;3.20;;;2.00;;
16478;SDS011;8350;52.316;10.530;2024-01-30T00:07:52;2.80;;;2.05;;
16478;SDS011;8350;52.316;10.530;2024-01-30T00:10:19;2.38;;;2.08;;
16478;SDS011;8350;52.316;10.530;2024-01-30T00:12:58;2.35;;;1.27;;
16478;SDS011;8350;52.316;10.530;2024-01-30T00:15:27;1.83;;;1.73;;
16478;SDS011;8350;52.316;10.530;2024-01-30T00:17:54;1.98;;;1.40;;
16478;SDS011;8350;52.316;10.530;2024-01-30T00:20:21;3.67;;;1.60;;
16478;SDS011;8350;52.316;10.530;2024-01-30T00:22:48;1.15;;;1.13;;
16478;SDS011;8350;52.316;10.530;2024-01-30T00:25:19;1.90;;;1.80;;
16478;SDS011;8350;52.316;10.530;2024-01-30T00:27:45;1.83;;;1.63;;
16478;SDS011;8350;52.316;10.530;2024-01-30T00:30:13;1.13;;;1.05;;
16478;SDS011;8350;52.316;10.530;2024-01-30T00:32:42;1.38;;;1.27;;
16478;SDS011;8350;52.316;10.530;2024-01-30T00:35:09;1.00;;;1.00;;
16478;SDS011;8350;52.316;10.530;2024-01-30T00:37:36;2.50;;;1.55;;
16478;SDS011;8350;52.316;10.530;2024-01-30T00:40:04;2.17;;;1.85;;
16478;SDS011;8350;52.316;10.530;2024-01-30T00:42:33;2.15;;;2.03;;
16478;SDS011;8350;52.316;10.530;2024-01-30T00:45:00;1.50;;;1.42;;
16478;SDS011;8350;52.316;10.530;2024-01-30T00:47:27;1.52;;;1.13;;
16478;SDS011;8350;52.316;10.530;2024-01-30T00:49:54;3.88;;;2.38;;
16478;SDS011;8350;52.316;10.530;2024-01-30T00:52:21;2.95;;;1.70;;
16478;SDS011;8350;52.316;10.530;2024-01-30T00:54:54;2.42;;;1.63;;
16478;SDS011;8350;52.316;10.530;2024-01-30T00:57:21;1.88;;;1.50;;
16478;SDS011;8350;52.316;10.530;2024-01-30T00:59:50;1.92;;;1.83;;
16478;SDS011;8350;52.316;10.530;2024-01-30T01:02:19;2.38;;;2.17;;
16478;SDS011;8350;52.316;10.530;2024-01-30T01:04:46;4.13;;;1.92;;
16478;SDS011;8350;52.316;10.530;2024-01-30T01:07:13;1.55;;;1.45;;
16478;SDS011;8350;52.316;10.530;2024-01-30T01:09:40;3.60;;;1.48;;
16478;SDS011;8350;52.316;10.530;2024-01-30T01:12:12;1.77;;;1.67;;
16478;SDS011;8350;52.316;10.530;2024-01-30T01:14:40;1.92;;;1.83;;
16478;SDS011;8350;52.316;10.530;2024-01-30T01:17:09;1.83;;;1.73;;
16478;SDS011;8350;52.316;10.530;2024-01-30T01:19:36;2.38;;;1.70;;
16478;SDS011;8350;52.316;10.530;2024-01-30T01:22:03;2.53;;;1.70;;
16478;SDS011;8350;52.316;10.530;2024-01-30T01:24:30;3.80;;;2.15;;
16478;SDS011;8350;52.316;10.530;2024-01-30T01:27:01;1.60;;;1.33;;
16478;SDS011;8350;52.316;10.530;2024-01-30T01:29:28;2.28;;;2.10;;
16478;SDS011;8350;52.316;10.530;2024-01-30T01:31:55;1.00;;;1.00;;
16478;SDS011;8350;52.316;10.530;2024-01-30T01:34:23;1.73;;;1.33;;
16478;SDS011;8350;52.316;10.530;2024-01-30T01:36:51;1.75;;;1.65;;
16478;SDS011;8350;52.316;10.530;2024-01-30T01:39:20;2.50;;;2.22;;
16478;SDS011;8350;52.316;10.530;2024-01-30T01:41:48;1.38;;;1.27;;
16478;SDS011;8350;52.316;10.530;2024-01-30T01:44:15;4.85;;;2.67;;
16478;SDS011;8350;52.316;10.530;2024-01-30T01:46:43;2.85;;;1.35;;
16478;SDS011;8350;52.316;10.530;2024-01-30T01:49:11;1.35;;;1.25;;
16478;SDS011;8350;52.316;10.530;2024-01-30T01:51:41;2.67;;;2.22;;
16478;SDS011;8350;52.316;10.530;2024-01-30T01:54:09;2.35;;;2.05;;
16478;SDS011;8350;52.316;10.530;2024-01-30T01:56:38;1.33;;;1.23;;
16478;SDS011;8350;52.316;10.530;2024-01-30T01:59:05;3.53;;;1.27;;
16478;SDS011;8350;52.316;10.530;2024-01-30T02:01:33;1.75;;;1.45;;
16478;SDS011;8350;52.316;10.530;2024-01-30T02:04:02;4.28;;;1.75;;
16478;SDS011;8350;52.316;10.530;2024-01-30T02:06:29;1.70;;;1.63;;
16478;SDS011;8350;52.316;10.530;2024-01-30T02:08:58;1.25;;;1.15;;
16478;SDS011;8350;52.316;10.530;2024-01-30T02:11:25;1.23;;;1.15;;
16478;SDS011;8350;52.316;10.530;2024-01-30T02:13:53;1.50;;;0.80;;
16478;SDS011;8350;52.316;10.530;2024-01-30T02:16:20;1.98;;;1.52;;
16478;SDS011;8350;52.316;10.530;2024-01-30T02:18:47;2.20;;;1.65;;
16478;SDS011;8350;52.316;10.530;2024-01-30T02:21:16;1.73;;;1.63;;
16478;SDS011;8350;52.316;10.530;2024-01-30T02:23:44;1.55;;;1.17;;
16478;SDS011;8350;52.316;10.530;2024-01-30T02:26:13;1.50;;;0.80;;
16478;SDS011;8350;52.316;10.530;2024-01-30T02:28:42;1.58;;;1.42;;
16478;SDS011;8350;52.316;10.530;2024-01-30T02:31:09;1.65;;;1.55;;
16478;SDS011;8350;52.316;10.530;2024-01-30T02:33:36;0.70;;;0.70;;
16478;SDS011;8350;52.316;10.530;2024-01-30T02:36:03;2.45;;;1.67;;
16478;SDS011;8350;52.316;10.530;2024-01-30T02:38:32;1.42;;;1.40;;
16478;SDS011;8350;52.316;10.530;2024-01-30T02:40:59;1.00;;;0.82;;
16478;SDS011;8350;52.316;10.530;2024-01-30T02:43:29;1.00;;;1.00;;
16478;SDS011;8350;52.316;10.530;2024-01-30T02:45:59;1.02;;;1.02;;
16478;SDS011;8350;52.316;10.530;2024-01-30T02:48:27;1.38;;;1.27;;
16478;SDS011;8350;52.316;10.530;2024-01-30T02:50:54;1.40;;;1.25;;
16478;SDS011;8350;52.316;10.530;2024-01-30T02:53:23;1.95;;;1.27;;
16478;SDS011;8350;52.316;10.530;2024-01-30T02:55:51;2.10;;;1.90;;
16478;SDS011;8350;52.316;10.530;2024-01-30T02:58:18;1.40;;;1.30;;
16478;SDS011;8350;52.316;10.530;2024-01-30T03:00:45;1.95;;;1.83;;
16478;SDS011;8350;52.316;10.530;2024-01-30T03:03:11;2.17;;;1.50;;
16478;SDS011;8350;52.316;10.530;2024-01-30T03:05:38;1.88;;;1.35;;
16478;SDS011;8350;52.316;10.530;2024-01-30T03:08:08;1.33;;;1.33;;
16478;SDS011;8350;52.316;10.530;2024-01-30T03:10:35;1.05;;;0.98;;
16478;SDS011;8350;52.316;10.530;2024-01-30T03:13:07;2.85;;;2.10;;
16478;SDS011;8350;52.316;10.530;2024-01-30T03:15:43;1.25;;;1.15;;
16478;SDS011;8350;52.316;10.530;2024-01-30T03:18:10;0.95;;;0.95;;
16478;SDS011;8350;52.316;10.530;2024-01-30T03:20:37;1.42;;;1.33;;
16478;SDS011;8350;52.316;10.530;2024-01-30T03:23:04;1.77;;;1.27;;
16478;SDS011;8350;52.316;10.530;2024-01-30T03:25:31;3.03;;;2.75;;
16478;SDS011;8350;52.316;10.530;2024-01-30T03:27:58;2.53;;;1.70;;
16478;SDS011;8350;52.316;10.530;2024-01-30T03:30:26;2.20;;;1.70;;
16478;SDS011;8350;52.316;10.530;2024-01-30T03:32:53;2.42;;;2.17;;
16478;SDS011;8350;52.316;10.530;2024-01-30T03:35:20;1.83;;;1.73;;
16478;SDS011;8350;52.316;10.530;2024-01-30T03:37:47;1.80;;;1.70;;
16478;SDS011;8350;52.316;10.530;2024-01-30T03:40:14;1.98;;;1.67;;
16478;SDS011;8350;52.316;10.530;2024-01-30T03:42:43;2.00;;;1.25;;
16478;SDS011;8350;52.316;10.530;2024-01-30T03:45:10;2.30;;;1.65;;
16478;SDS011;8350;52.316;10.530;2024-01-30T03:47:38;2.88;;;1.98;;
16478;SDS011;8350;52.316;10.530;2024-01-30T03:50:06;2.05;;;1.45;;
16478;SDS011;8350;52.316;10.530;2024-01-30T03:52:33;1.67;;;1.50;;
16478;SDS011;8350;52.316;10.530;2024-01-30T03:55:00;2.20;;;1.42;;
16478;SDS011;8350;52.316;10.530;2024-01-30T03:57:27;2.72;;;2.03;;
16478;SDS011;8350;52.316;10.530;2024-01-30T03:59:54;4.32;;;2.05;;
16478;SDS011;8350;52.316;10.530;2024-01-30T04:02:24;1.65;;;1.30;;
16478;SDS011;8350;52.316;10.530;2024-01-30T04:04:52;2.92;;;1.45;;
16478;SDS011;8350;52.316;10.530;2024-01-30T04:07:19;3.05;;;1.65;;
16478;SDS011;8350;52.316;10.530;2024-01-30T04:09:46;2.38;;;1.60;;
16478;SDS011;8350;52.316;10.530;2024-01-30T04:12:16;1.27;;;1.17;;
16478;SDS011;8350;52.316;10.530;2024-01-30T04:14:46;1.45;;;1.33;;
16478;SDS011;8350;52.316;10.530;2024-01-30T04:17:13;1.45;;;1.35;;
16478;SDS011;8350;52.316;10.530;2024-01-30T04:19:42;1.90;;;1.80;;
16478;SDS011;8350;52.316;10.530;2024-01-30T04:22:12;2.45;;;1.95;;
16478;SDS011;8350;52.316;10.530;2024-01-30T04:24:39;1.98;;;1.48;;
16478;SDS011;8350;52.316;10.530;2024-01-30T04:27:06;2.47;;;2.25;;
16478;SDS011;8350;52.316;10.530;2024-01-30T04:29:33;2.38;;;2.17;;
16478;SDS011;8350;52.316;10.530;2024-01-30T04:32:03;2.30;;;2.10;;
16478;SDS011;8350;52.316;10.530;2024-01-30T04:34:29;2.35;;;1.77;;
16478;SDS011;8350;52.316;10.530;2024-01-30T04:36:56;2.30;;;2.08;;
16478;SDS011;8350;52.316;10.530;2024-01-30T04:41:55;3.70;;;2.50;;
16478;SDS011;8350;52.316;10.530;2024-01-30T04:44:22;3.67;;;1.52;;
16478;SDS011;8350;52.316;10.530;2024-01-30T04:46:48;2.33;;;2.13;;
16478;SDS011;8350;52.316;10.530;2024-01-30T04:49:15;1.63;;;1.13;;
16478;SDS011;8350;52.316;10.530;2024-01-30T04:51:42;3.28;;;2.22;;
16478;SDS011;8350;52.316;10.530;2024-01-30T04:54:12;2.70;;;2.50;;
16478;SDS011;8350;52.316;10.530;2024-01-30T04:56:39;2.25;;;2.03;;
16478;SDS011;8350;52.316;10.530;2024-01-30T04:59:10;3.95;;;2.30;;
16478;SDS011;8350;52.316;10.530;2024-01-30T05:01:37;2.65;;;2.13;;
16478;SDS011;8350;52.316;10.530;2024-01-30T05:04:07;2.60;;;2.40;;
16478;SDS011;8350;52.316;10.530;2024-01-30T05:06:34;2.80;;;2.50;;
16478;SDS011;8350;52.316;10.530;2024-01-30T05:09:01;2.22;;;1.98;;
16478;SDS011;8350;52.316;10.530;2024-01-30T05:11:29;4.10;;;2.20;;
16478;SDS011;8350;52.316;10.530;2024-01-30T05:13:58;2.83;;;1.85;;
16478;SDS011;8350;52.316;10.530;2024-01-30T05:16:27;3.38;;;3.08;;
16478;SDS011;8350;52.316;10.530;2024-01-30T05:18:53;2.42;;;1.52;;
16478;SDS011;8350;52.316;10.530;2024-01-30T05:21:20;3.95;;;2.05;;
16478;SDS011;8350;52.316;10.530;2024-01-30T05:23:47;3.25;;;2.42;;
16478;SDS011;8350;52.316;10.530;2024-01-30T05:26:14;2.40;;;2.03;;
16478;SDS011;8350;52.316;10.530;2024-01-30T05:28:41;3.17;;;2.88;;
16478;SDS011;8350;52.316;10.530;2024-01-30T05:31:09;3.08;;;2.78;;
16478;SDS011;8350;52.316;10.530;2024-01-30T05:33:38;3.13;;;2.08;;
16478;SDS011;8350;52.316;10.530;2024-01-30T05:36:05;1.88;;;1.77;;
16478;SDS011;8350;52.316;10.530;2024-01-30T05:38:33;2.92;;;1.88;;
16478;SDS011;8350;52.316;10.530;2024-01-30T05:41:01;3.20;;;2.30;;
16478;SDS011;8350;52.316;10.530;2024-01-30T05:43:31;2.38;;;2.17;;
16478;SDS011;8350;52.316;10.530;2024-01-30T05:45:58;3.30;;;2.88;;
16478;SDS011;8350;52.316;10.530;2024-01-30T05:48:25;4.70;;;2.25;;
16478;SDS011;8350;52.316;10.530;2024-01-30T05:50:54;2.25;;;2.05;;
16478;SDS011;8350;52.316;10.530;2024-01-30T05:53:21;2.35;;;2.15;;
16478;SDS011;8350;52.316;10.530;2024-01-30T05:55:48;2.47;;;1.67;;
16478;SDS011;8350;52.316;10.530;2024-01-30T05:58:15;2.47;;;2.28;;
16478;SDS011;8350;52.316;10.530;2024-01-30T06:00:42;2.35;;;1.75;;
16478;SDS011;8350;52.316;10.530;2024-01-30T06:03:09;2.47;;;2.25;;
16478;SDS011;8350;52.316;10.530;2024-01-30T06:05:36;2.83;;;1.98;;
16478;SDS011;8350;52.316;10.530;2024-01-30T06:08:05;5.82;;;2.78;;
16478;SDS011;8350;52.316;10.530;2024-01-30T06:10:32;2.80;;;2.53;;
16478;SDS011;8350;52.316;10.530;2024-01-30T06:12:59;3.08;;;2.70;;
16478;SDS011;8350;52.316;10.530;2024-01-30T06:15:26;1.70;;;1.60;;
16478;SDS011;8350;52.316;10.530;2024-01-30T06:17:54;1.58;;;1.48;;
16478;SDS011;8350;52.316;10.530;2024-01-30T06:20:22;2.33;;;1.52;;
16478;SDS011;8350;52.316;10.530;2024-01-30T06:22:48;2.80;;;2.47;;
16478;SDS011;8350;52.316;10.530;2024-01-30T06:25:17;1.42;;;1.33;;
16478;SDS011;8350;52.316;10.530;2024-01-30T06:27:47;2.08;;;1.95;;
16478;SDS011;8350;52.316;10.530;2024-01-30T06:30:14;2.85;;;1.55;;
16478;SDS011;8350;52.316;10.530;2024-01-30T06:32:43;2.47;;;2.08;;
16478;SDS011;8350;52.316;10.530;2024-01-30T06:35:10;4.53;;;2.95;;
16478;SDS011;8350;52.316;10.530;2024-01-30T06:37:37;3.17;;;2.00;;
16478;SDS011;8350;52.316;10.530;2024-01-30T06:40:05;3.42;;;1.77;;
16478;SDS011;8350;52.316;10.530;2024-01-30T06:42:37;3.55;;;2.15;;
16478;SDS011;8350;52.316;10.530;2024-01-30T06:45:04;3.30;;;2.95;;
16478;SDS011;8350;52.316;10.530;2024-01-30T06:47:34;2.45;;;2.25;;
16478;SDS011;8350;52.316;10.530;2024-01-30T06:50:01;1.77;;;1.67;;
16478;SDS011;8350;52.316;10.530;2024-01-30T06:52:28;1.88;;;1.73;;
16478;SDS011;8350;52.316;10.530;2024-01-30T06:54:55;3.47;;;2.03;;
16478;SDS011;8350;52.316;10.530;2024-01-30T06:57:22;3.20;;;2.85;;
16478;SDS011;8350;52.316;10.530;2024-01-30T06:59:50;3.25;;;2.65;;
16478;SDS011;8350;52.316;10.530;2024-01-30T07:02:17;2.40;;;2.20;;
16478;SDS011;8350;52.316;10.530;2024-01-30T07:04:44;2.85;;;2.45;;
16478;SDS011;8350;52.316;10.530;2024-01-30T07:07:11;3.65;;;2.28;;
16478;SDS011;8350;52.316;10.530;2024-01-30T07:09:39;4.32;;;3.50;;
16478;SDS011;8350;52.316;10.530;2024-01-30T07:12:07;3.75;;;2.47;;
16478;SDS011;8350;52.316;10.530;2024-01-30T07:14:34;3.47;;;3.17;;
16478;SDS011;8350;52.316;10.530;2024-01-30T07:17:04;3.25;;;2.80;;
16478;SDS011;8350;52.316;10.530;2024-01-30T07:19:32;5.82;;;3.50;;
16478;SDS011;8350;52.316;10.530;2024-01-30T07:22:00;3.13;;;2.08;;
16478;SDS011;8350;52.316;10.530;2024-01-30T07:24:27;5.18;;;2.20;;
16478;SDS011;8350;52.316;10.530;2024-01-30T07:26:54;2.78;;;2.28;;
16478;SDS011;8350;52.316;10.530;2024-01-30T07:29:21;4.93;;;2.40;;
16478;SDS011;8350;52.316;10.530;2024-01-30T07:31:48;3.25;;;2.60;;
16478;SDS011;8350;52.316;10.530;2024-01-30T07:34:16;4.28;;;3.00;;
16478;SDS011;8350;52.316;10.530;2024-01-30T07:36:46;8.15;;;3.50;;
16478;SDS011;8350;52.316;10.530;2024-01-30T07:39:13;3.50;;;3.08;;
16478;SDS011;8350;52.316;10.530;2024-01-30T07:41:40;4.38;;;3.08;;
16478;SDS011;8350;52.316;10.530;2024-01-30T07:44:07;3.15;;;2.85;;
16478;SDS011;8350;52.316;10.530;2024-01-30T07:46:34;3.22;;;2.53;;
16478;SDS011;8350;52.316;10.530;2024-01-30T07:49:01;5.07;;;3.17;;
16478;SDS011;8350;52.316;10.530;2024-01-30T07:51:29;2.95;;;2.05;;
16478;SDS011;8350;52.316;10.530;2024-01-30T07:53:58;4.55;;;2.92;;
16478;SDS011;8350;52.316;10.530;2024-01-30T07:56:41;2.97;;;2.72;;
16478;SDS011;8350;52.316;10.530;2024-01-30T07:59:21;3.60;;;2.97;;
16478;SDS011;8350;52.316;10.530;2024-01-30T08:01:49;4.10;;;2.85;;
16478;SDS011;8350;52.316;10.530;2024-01-30T08:04:16;3.30;;;2.95;;
16478;SDS011;8350;52.316;10.530;2024-01-30T08:06:45;3.13;;;2.83;;
16478;SDS011;8350;52.316;10.530;2024-01-30T08:09:12;3.83;;;2.63;;
16478;SDS011;8350;52.316;10.530;2024-01-30T08:11:39;3.05;;;2.80;;
16478;SDS011;8350;52.316;10.530;2024-01-30T08:14:09;5.05;;;3.22;;
16478;SDS011;8350;52.316;10.530;2024-01-30T08:16:36;5.10;;;3.78;;
16478;SDS011;8350;52.316;10.530;2024-01-30T08:19:03;3.83;;;3.50;;
16478;SDS011;8350;52.316;10.530;2024-01-30T08:21:30;5.53;;;3.55;;
16478;SDS011;8350;52.316;10.530;2024-01-30T08:24:03;3.75;;;2.97;;
16478;SDS011;8350;52.316;10.530;2024-01-30T08:26:30;4.78;;;4.25;;
16478;SDS011;8350;52.316;10.530;2024-01-30T08:28:57;5.82;;;3.90;;
16478;SDS011;8350;52.316;10.530;2024-01-30T08:31:24;4.95;;;3.70;;
16478;SDS011;8350;52.316;10.530;2024-01-30T08:33:51;4.32;;;3.58;;
16478;SDS011;8350;52.316;10.530;2024-01-30T08:36:18;4.88;;;4.35;;
16478;SDS011;8350;52.316;10.530;2024-01-30T08:38:49;7.38;;;5.70;;
16478;SDS011;8350;52.316;10.530;2024-01-30T08:41:17;5.07;;;4.57;;
16478;SDS011;8350;52.316;10.530;2024-01-30T08:43:44;6.00;;;4.53;;
16478;SDS011;8350;52.316;10.530;2024-01-30T08:46:11;4.13;;;3.83;;
16478;SDS011;8350;52.316;10.530;2024-01-30T08:48:38;6.65;;;4.85;;
16478;SDS011;8350;52.316;10.530;2024-01-30T08:51:05;7.60;;;4.80;;
16478;SDS011;8350;52.316;10.530;2024-01-30T08:53:33;7.53;;;5.30;;
16478;SDS011;8350;52.316;10.530;2024-01-30T08:56:04;6.05;;;4.70;;
16478;SDS011;8350;52.316;10.530;2024-01-30T09:01:49;5.85;;;4.82;;
16478;SDS011;8350;52.316;10.530;2024-01-30T09:04:20;6.57;;;5.35;;
16478;SDS011;8350;52.316;10.530;2024-01-30T09:06:47;6.82;;;5.57;;
16478;SDS011;8350;52.316;10.530;2024-01-30T09:09:15;6.00;;;4.63;;
16478;SDS011;8350;52.316;10.530;2024-01-30T09:11:42;5.57;;;4.95;;
16478;SDS011;8350;52.316;10.530;2024-01-30T09:14:11;6.97;;;5.45;;
16478;SDS011;8350;52.316;10.530;2024-01-30T09:16:38;6.80;;;4.78;;
16478;SDS011;8350;52.316;10.530;2024-01-30T09:19:05;7.63;;;6.32;;
16478;SDS011;8350;52.316;10.530;2024-01-30T09:21:32;7.30;;;6.00;;
16478;SDS011;8350;52.316;10.530;2024-01-30T09:24:01;10.77;;;6.57;;
16478;SDS011;8350;52.316;10.530;2024-01-30T09:26:29;7.05;;;5.90;;
16478;SDS011;8350;52.316;10.530;2024-01-30T09:28:57;8.60;;;6.28;;
16478;SDS011;8350;52.316;10.530;2024-01-30T09:31:25;11.35;;;6.70;;
16478;SDS011;8350;52.316;10.530;2024-01-30T09:33:52;7.22;;;6.47;;
16478;SDS011;8350;52.316;10.530;2024-01-30T09:36:20;6.72;;;5.60;;
16478;SDS011;8350;52.316;10.530;2024-01-30T09:38:47;11.85;;;7.78;;
16478;SDS011;8350;52.316;10.530;2024-01-30T09:41:14;7.60;;;5.50;;
16478;SDS011;8350;52.316;10.530;2024-01-30T09:43:43;8.30;;;6.55;;
16478;SDS011;8350;52.316;10.530;2024-01-30T09:46:14;10.38;;;6.78;;
16478;SDS011;8350;52.316;10.530;2024-01-30T09:48:49;7.50;;;5.80;;
16478;SDS011;8350;52.316;10.530;2024-01-30T09:51:16;6.20;;;5.30;;
16478;SDS011;8350;52.316;10.530;2024-01-30T09:53:43;5.95;;;5.35;;
16478;SDS011;8350;52.316;10.530;2024-01-30T09:56:12;5.65;;;5.10;;
16478;SDS011;8350;52.316;10.530;2024-01-30T09:58:39;7.82;;;5.05;;
16478;SDS011;8350;52.316;10.530;2024-01-30T10:01:07;8.23;;;5.22;;
16478;SDS011;8350;52.316;10.530;2024-01-30T10:03:34;5.25;;;4.63;;
16478;SDS011;8350;52.316;10.530;2024-01-30T10:06:02;6.13;;;5.43;;
16478;SDS011;8350;52.316;10.530;2024-01-30T10:08:29;8.55;;;5.07;;
16478;SDS011;8350;52.316;10.530;2024-01-30T10:11:11;5.55;;;4.10;;
16478;SDS011;8350;52.316;10.530;2024-01-30T10:13:38;8.52;;;5.18;;
16478;SDS011;8350;52.316;10.530;2024-01-30T10:16:08;7.32;;;4.88;;
16478;SDS011;8350;52.316;10.530;2024-01-30T10:18:35;6.43;;;4.07;;
16478;SDS011;8350;52.316;10.530;2024-01-30T10:21:06;6.40;;;4.32;;
16478;SDS011;8350;52.316;10.530;2024-01-30T10:23:33;4.53;;;3.67;;
16478;SDS011;8350;52.316;10.530;2024-01-30T10:26:02;4.55;;;4.00;;
16478;SDS011;8350;52.316;10.530;2024-01-30T10:28:30;5.75;;;4.60;;
16478;SDS011;8350;52.316;10.530;2024-01-30T10:30:57;5.93;;;4.68;;
16478;SDS011;8350;52.316;10.530;2024-01-30T10:33:25;6.22;;;4.68;;
16478;SDS011;8350;52.316;10.530;2024-01-30T10:35:54;5.70;;;3.55;;
16478;SDS011;8350;52.316;10.530;2024-01-30T10:38:27;6.10;;;3.90;;
16478;SDS011;8350;52.316;10.530;2024-01-30T10:40:56;5.45;;;3.53;;
16478;SDS011;8350;52.316;10.530;2024-01-30T10:43:24;3.40;;;3.10;;
16478;SDS011;8350;52.316;10.530;2024-01-30T10:45:56;5.60;;;3.63;;
16478;SDS011;8350;52.316;10.530;2024-01-30T10:48:29;3.78;;;2.95;;
16478;SDS011;8350;52.316;10.530;2024-01-30T10:50:59;3.55;;;3.25;;
16478;SDS011;8350;52.316;10.530;2024-01-30T10:53:30;4.55;;;3.58;;
16478;SDS011;8350;52.316;10.530;2024-01-30T10:55:58;3.67;;;3.38;;
16478;SDS011;8350;52.316;10.530;2024-01-30T10:58:26;3.58;;;2.80;;
16478;SDS011;8350;52.316;10.530;2024-01-30T11:00:55;3.47;;;3.13;;
16478;SDS011;8350;52.316;10.530;2024-01-30T11:03:22;4.13;;;3.20;;
16478;SDS011;8350;52.316;10.530;2024-01-30T11:05:49;4.18;;;3.17;;
16478;SDS011;8350;52.316;10.530;2024-01-30T11:08:22;5.57;;;4.40;;
16478;SDS011;8350;52.316;10.530;2024-01-30T11:10:56;3.38;;;2.83;;
16478;SDS011;8350;52.316;10.530;2024-01-30T11:13:26;3.58;;;3.00;;
16478;SDS011;8350;52.316;10.530;2024-01-30T11:15:59;3.60;;;3.17;;
16478;SDS011;8350;52.316;10.530;2024-01-30T11:18:29;3.47;;;2.90;;
16478;SDS011;8350;52.316;10.530;2024-01-30T11:20:57;4.22;;;3.40;;
16478;SDS011;8350;52.316;10.530;2024-01-30T11:23:26;3.80;;;2.58;;
16478;SDS011;8350;52.316;10.530;2024-01-30T11:25:56;4.53;;;3.38;;
16478;SDS011;8350;52.316;10.530;2024-01-30T11:28:23;3.40;;;2.90;;
16478;SDS011;8350;52.316;10.530;2024-01-30T11:30:50;4.28;;;3.70;;
16478;SDS011;8350;52.316;10.530;2024-01-30T11:33:27;3.22;;;2.85;;
16478;SDS011;8350;52.316;10.530;2024-01-30T11:35:56;3.25;;;2.65;;
16478;SDS011;8350;52.316;10.530;2024-01-30T11:38:24;7.30;;;3.10;;
16478;SDS011;8350;52.316;10.530;2024-01-30T11:40:52;3.60;;;2.88;;
16478;SDS011;8350;52.316;10.530;2024-01-30T11:43:21;3.17;;;2.88;;
16478;SDS011;8350;52.316;10.530;2024-01-30T11:45:49;4.03;;;3.22;;
16478;SDS011;8350;52.316;10.530;2024-01-30T11:48:16;4.10;;;2.88;;
16478;SDS011;8350;52.316;10.530;2024-01-30T11:50:46;3.65;;;2.80;;
16478;SDS011;8350;52.316;10.530;2024-01-30T11:53:13;4.13;;;3.70;;
16478;SDS011;8350;52.316;10.530;2024-01-30T11:55:42;4.10;;;3.13;;
16478;SDS011;8350;52.316;10.530;2024-01-30T11:58:16;3.42;;;2.60;;
16478;SDS011;8350;52.316;10.530;2024-01-30T12:00:44;3.53;;;2.70;;
16478;SDS011;8350;52.316;10.530;2024-01-30T12:03:19;5.20;;;3.10;;
16478;SDS011;8350;52.316;10.530;2024-01-30T12:05:46;2.55;;;2.33;;
16478;SDS011;8350;52.316;10.530;2024-01-30T12:08:20;4.80;;;3.47;;
16478;SDS011;8350;52.316;10.530;2024-01-30T12:10:54;4.07;;;2.80;;
16478;SDS011;8350;52.316;10.530;2024-01-30T12:13:37;3.70;;;2.72;;
16478;SDS011;8350;52.316;10.530;2024-01-30T12:16:08;4.20;;;2.88;;
16478;SDS011;8350;52.316;10.530;2024-01-30T12:18:35;3.17;;;2.70;;
16478;SDS011;8350;52.316;10.530;2024-01-30T12:21:03;3.28;;;2.97;;
16478;SDS011;8350;52.316;10.530;2024-01-30T12:23:34;3.42;;;2.95;;
16478;SDS011;8350;52.316;10.530;2024-01-30T12:26:01;3.63;;;2.80;;
16478;SDS011;8350;52.316;10.530;2024-01-30T12:28:32;4.43;;;3.72;;
16478;SDS011;8350;52.316;10.530;2024-01-30T12:31:01;2.92;;;2.38;;
16478;SDS011;8350;52.316;10.530;2024-01-30T12:33:31;3.63;;;2.85;;
16478;SDS011;8350;52.316;10.530;2024-01-30T12:36:00;3.78;;;3.15;;
16478;SDS011;8350;52.316;10.530;2024-01-30T12:38:30;3.80;;;3.05;;
16478;SDS011;8350;52.316;10.530;2024-01-30T12:40:57;3.90;;;2.80;;
16478;SDS011;8350;52.316;10.530;2024-01-30T12:43:24;3.33;;;2.92;;
16478;SDS011;8350;52.316;10.530;2024-01-30T12:45:54;2.80;;;2.60;;
16478;SDS011;8350;52.316;10.530;2024-01-30T12:48:22;3.63;;;2.97;;
16478;SDS011;8350;52.316;10.530;2024-01-30T12:50:52;3.90;;;3.42;;
16478;SDS011;8350;52.316;10.530;2024-01-30T12:53:19;3.17;;;2.80;;
16478;SDS011;8350;52.316;10.530;2024-01-30T12:55:46;2.90;;;2.55;;
16478;SDS011;8350;52.316;10.530;2024-01-30T12:58:16;3.50;;;3.17;;
16478;SDS011;8350;52.316;10.530;2024-01-30T13:00:43;3.78;;;3.47;;
16478;SDS011;8350;52.316;10.530;2024-01-30T13:03:13;3.65;;;3.13;;
16478;SDS011;8350;52.316;10.530;2024-01-30T13:05:44;3.70;;;3.35;;
16478;SDS011;8350;52.316;10.530;2024-01-30T13:08:12;3.67;;;2.88;;
16478;SDS011;8350;52.316;10.530;2024-01-30T13:10:39;5.85;;;3.00;;
16478;SDS011;8350;52.316;10.530;2024-01-30T13:13:06;4.65;;;2.80;;
16478;SDS011;8350;52.316;10.530;2024-01-30T13:15:34;4.55;;;3.25;;
16478;SDS011;8350;52.316;10.530;2024-01-30T13:18:01;3.33;;;2.70;;
16478;SDS011;8350;52.316;10.530;2024-01-30T13:20:28;4.40;;;2.95;;
16478;SDS011;8350;52.316;10.530;2024-01-30T13:22:55;3.40;;;3.10;;
16478;SDS011;8350;52.316;10.530;2024-01-30T13:25:28;3.30;;;2.70;;
16478;SDS011;8350;52.316;10.530;2024-01-30T13:27:55;3.25;;;2.70;;
16478;SDS011;8350;52.316;10.530;2024-01-30T13:30:21;3.25;;;2.83;;
16478;SDS011;8350;52.316;10.530;2024-01-30T13:32:48;3.42;;;2.70;;
16478;SDS011;8350;52.316;10.530;2024-01-30T13:35:28;5.35;;;2.92;;
16478;SDS011;8350;52.316;10.530;2024-01-30T13:37:55;4.25;;;3.00;;
16478;SDS011;8350;52.316;10.530;2024-01-30T13:40:24;5.13;;;2.60;;
16478;SDS011;8350;52.316;10.530;2024-01-30T13:42:53;5.05;;;3.10;;
16478;SDS011;8350;52.316;10.530;2024-01-30T13:45:20;3.50;;;3.08;;
16478;SDS011;8350;52.316;10.530;2024-01-30T13:47:47;6.30;;;3.20;;
16478;SDS011;8350;52.316;10.530;2024-01-30T13:50:14;3.83;;;3.10;;
16478;SDS011;8350;52.316;10.530;2024-01-30T13:52:41;4.22;;;2.88;;
16478;SDS011;8350;52.316;10.530;2024-01-30T13:55:09;3.22;;;2.95;;
16478;SDS011;8350;52.316;10.530;2024-01-30T13:57:38;4.72;;;3.33;;
16478;SDS011;8350;52.316;10.530;2024-01-30T14:00:07;3.70;;;2.80;;
16478;SDS011;8350;52.316;10.530;2024-01-30T14:02:35;2.88;;;2.60;;
16478;SDS011;8350;52.316;10.530;2024-01-30T14:05:05;3.40;;;2.65;;
16478;SDS011;8350;52.316;10.530;2024-01-30T14:07:32;3.78;;;2.92;;
16478;SDS011;8350;52.316;10.530;2024-01-30T14:09:59;5.68;;;3.83;;
16478;SDS011;8350;52.316;10.530;2024-01-30T14:12:26;3.92;;;3.17;;
16478;SDS011;8350;52.316;10.530;2024-01-30T14:14:55;2.83;;;2.60;;
16478;SDS011;8350;52.316;10.530;2024-01-30T14:17:23;5.45;;;3.10;;
16478;SDS011;8350;52.316;10.530;2024-01-30T14:19:50;2.67;;;2.47;;
16478;SDS011;8350;52.316;10.530;2024-01-30T14:22:17;4.93;;;3.45;;
16478;SDS011;8350;52.316;10.530;2024-01-30T14:24:44;3.72;;;3.30;;
16478;SDS011;8350;52.316;10.530;2024-01-30T14:27:12;3.22;;;2.92;;
16478;SDS011;8350;52.316;10.530;2024-01-30T14:29:39;3.63;;;3.33;;
16478;SDS011;8350;52.316;10.530;2024-01-30T14:32:08;4.72;;;3.40;;
16478;SDS011;8350;52.316;10.530;2024-01-30T14:34:37;4.20;;;3.28;;
16478;SDS011;8350;52.316;10.530;2024-01-30T14:37:04;3.13;;;2.70;;
16478;SDS011;8350;52.316;10.530;2024-01-30T14:39:31;3.47;;;2.30;;
16478;SDS011;8350;52.316;10.530;2024-01-30T14:41:58;3.78;;;3.30;;
16478;SDS011;8350;52.316;10.530;2024-01-30T14:44:25;7.25;;;3.70;;
16478;SDS011;8350;52.316;10.530;2024-01-30T14:46:52;4.22;;;3.10;;
16478;SDS011;8350;52.316;10.530;2024-01-30T14:49:20;3.83;;;2.72;;
16478;SDS011;8350;52.316;10.530;2024-01-30T14:51:51;2.97;;;2.67;;
16478;SDS011;8350;52.316;10.530;2024-01-30T14:54:18;3.70;;;3.40;;
16478;SDS011;8350;52.316;10.530;2024-01-30T14:56:45;3.40;;;3.00;;
16478;SDS011;8350;52.316;10.530;2024-01-30T14:59:12;4.20;;;3.05;;